sensor_id;sensor_type;location;lat;lon;timestamp;temperature;humidity
48744;DHT22;34538;48.836;9.174;2022-10-13T00:00:42;9.90;99.90
48744;DHT22;34538;48.836;9.174;2022-10-13T00:03:08;9.90;99.90
48744;DHT22;34538;48.836;9.174;2022-10-13T00:05:34;9.90;99.90
48744;DHT22;34538;48.836;9.174;2022-10-13T00:08:00;9.90;99.90
48744;DHT22;34538;48.836;9.174;2022-10-13T00:10:29;9.90;99.90
48744;DHT22;34538;48.836;9.174;2022-10-13T00:12:54;9.90;99.90
48744;DHT22;34538;48.836;9.174;2022-10-13T00:15:21;9.90;99.90
48744;DHT22;34538;48.836;9.174;2022-10-13T00:17:46;9.90;99.90
48744;DHT22;34538;48.836;9.174;2022-10-13T00:20:12;9.90;99.90
48744;DHT22;34538;48.836;9.174;2022-10-13T00:22:37;9.90;99.90
48744;DHT22;34538;48.836;9.174;2022-10-13T00:25:04;10.00;99.90
48744;DHT22;34538;48.836;9.174;2022-10-13T00:27:30;10.00;99.90
48744;DHT22;34538;48.836;9.174;2022-10-13T00:29:55;10.00;99.90
48744;DHT22;34538;48.836;9.174;2022-10-13T00:32:21;10.10;99.90
48744;DHT22;34538;48.836;9.174;2022-10-13T00:34:47;10.10;99.90
48744;DHT22;34538;48.836;9.174;2022-10-13T00:37:13;10.10;99.90
48744;DHT22;34538;48.836;9.174;2022-10-13T00:39:39;10.10;99.90
48744;DHT22;34538;48.836;9.174;2022-10-13T00:42:06;10.10;99.90
48744;DHT22;34538;48.836;9.174;2022-10-13T00:47:20;10.00;99.90
48744;DHT22;34538;48.836;9.174;2022-10-13T00:49:46;10.00;99.90
48744;DHT22;34538;48.836;9.174;2022-10-13T00:52:13;10.00;99.90
48744;DHT22;34538;48.836;9.174;2022-10-13T00:54:41;10.00;99.90
48744;DHT22;34538;48.836;9.174;2022-10-13T00:57:07;10.00;99.90
48744;DHT22;34538;48.836;9.174;2022-10-13T00:59:35;10.00;99.90
48744;DHT22;34538;48.836;9.174;2022-10-13T01:02:02;10.00;99.90
48744;DHT22;34538;48.836;9.174;2022-10-13T01:04:32;10.00;99.90
48744;DHT22;34538;48.836;9.174;2022-10-13T01:06:59;9.90;99.90
48744;DHT22;34538;48.836;9.174;2022-10-13T01:09:25;9.90;99.90
48744;DHT22;34538;48.836;9.174;2022-10-13T01:12:01;9.90;99.90
48744;DHT22;34538;48.836;9.174;2022-10-13T01:14:40;9.90;99.90
48744;DHT22;34538;48.836;9.174;2022-10-13T01:17:31;9.90;99.90
48744;DHT22;34538;48.836;9.174;2022-10-13T01:20:28;9.90;99.90
48744;DHT22;34538;48.836;9.174;2022-10-13T01:23:29;9.90;99.90
48744;DHT22;34538;48.836;9.174;2022-10-13T01:32:28;10.00;99.90
48744;DHT22;34538;48.836;9.174;2022-10-13T01:34:59;10.00;99.90
48744;DHT22;34538;48.836;9.174;2022-10-13T01:37:29;10.10;99.90
48744;DHT22;34538;48.836;9.174;2022-10-13T01:40:04;10.10;99.90
48744;DHT22;34538;48.836;9.174;2022-10-13T01:45:48;10.20;99.90
48744;DHT22;34538;48.836;9.174;2022-10-13T01:48:15;10.30;99.90
48744;DHT22;34538;48.836;9.174;2022-10-13T01:50:47;10.30;99.90
48744;DHT22;34538;48.836;9.174;2022-10-13T01:53:15;10.30;99.90
48744;DHT22;34538;48.836;9.174;2022-10-13T01:55:54;10.40;99.90
48744;DHT22;34538;48.836;9.174;2022-10-13T01:58:21;10.40;99.90
48744;DHT22;34538;48.836;9.174;2022-10-13T02:03:37;10.40;99.90
48744;DHT22;34538;48.836;9.174;2022-10-13T02:09:21;10.40;99.90
48744;DHT22;34538;48.836;9.174;2022-10-13T02:11:54;10.40;99.90
48744;DHT22;34538;48.836;9.174;2022-10-13T02:14:23;10.30;99.90
48744;DHT22;34538;48.836;9.174;2022-10-13T02:16:52;10.30;99.90
48744;DHT22;34538;48.836;9.174;2022-10-13T02:19:19;10.30;99.90
48744;DHT22;34538;48.836;9.174;2022-10-13T02:21:46;10.30;99.90
48744;DHT22;34538;48.836;9.174;2022-10-13T02:24:12;10.30;99.90
48744;DHT22;34538;48.836;9.174;2022-10-13T02:26:38;10.20;99.90
48744;DHT22;34538;48.836;9.174;2022-10-13T02:29:13;10.20;99.90
48744;DHT22;34538;48.836;9.174;2022-10-13T02:31:40;10.20;99.90
48744;DHT22;34538;48.836;9.174;2022-10-13T02:34:06;10.20;99.90
48744;DHT22;34538;48.836;9.174;2022-10-13T02:36:32;10.10;99.90
48744;DHT22;34538;48.836;9.174;2022-10-13T02:38:58;10.20;99.90
48744;DHT22;34538;48.836;9.174;2022-10-13T02:41:24;10.20;99.90
48744;DHT22;34538;48.836;9.174;2022-10-13T02:43:49;10.20;99.90
48744;DHT22;34538;48.836;9.174;2022-10-13T02:46:15;10.20;99.90
48744;DHT22;34538;48.836;9.174;2022-10-13T02:48:41;10.30;99.90
48744;DHT22;34538;48.836;9.174;2022-10-13T02:51:07;10.40;99.90
48744;DHT22;34538;48.836;9.174;2022-10-13T02:53:33;10.40;99.90
48744;DHT22;34538;48.836;9.174;2022-10-13T02:55:59;10.40;99.90
48744;DHT22;34538;48.836;9.174;2022-10-13T02:58:26;10.40;99.90
48744;DHT22;34538;48.836;9.174;2022-10-13T03:00:52;10.40;99.90
48744;DHT22;34538;48.836;9.174;2022-10-13T03:03:17;10.40;99.90
48744;DHT22;34538;48.836;9.174;2022-10-13T03:05:44;10.40;99.90
48744;DHT22;34538;48.836;9.174;2022-10-13T03:08:10;10.40;99.90
48744;DHT22;34538;48.836;9.174;2022-10-13T03:10:36;10.40;99.90
48744;DHT22;34538;48.836;9.174;2022-10-13T03:13:02;10.40;99.90
48744;DHT22;34538;48.836;9.174;2022-10-13T03:15:27;10.40;99.90
48744;DHT22;34538;48.836;9.174;2022-10-13T03:17:57;10.30;99.90
48744;DHT22;34538;48.836;9.174;2022-10-13T03:20:23;10.40;99.90
48744;DHT22;34538;48.836;9.174;2022-10-13T03:22:49;10.30;99.90
48744;DHT22;34538;48.836;9.174;2022-10-13T03:25:14;10.40;99.90
48744;DHT22;34538;48.836;9.174;2022-10-13T03:27:40;10.30;99.90
48744;DHT22;34538;48.836;9.174;2022-10-13T03:30:06;10.40;99.90
48744;DHT22;34538;48.836;9.174;2022-10-13T03:32:33;10.40;99.90
48744;DHT22;34538;48.836;9.174;2022-10-13T03:34:58;10.50;99.90
48744;DHT22;34538;48.836;9.174;2022-10-13T03:37:34;10.60;99.90
48744;DHT22;34538;48.836;9.174;2022-10-13T03:40:06;10.60;99.90
48744;DHT22;34538;48.836;9.174;2022-10-13T03:42:34;10.60;99.90
48744;DHT22;34538;48.836;9.174;2022-10-13T03:45:01;10.60;99.90
48744;DHT22;34538;48.836;9.174;2022-10-13T03:47:26;10.70;99.90
48744;DHT22;34538;48.836;9.174;2022-10-13T03:49:52;10.70;99.90
48744;DHT22;34538;48.836;9.174;2022-10-13T03:52:20;10.80;99.90
48744;DHT22;34538;48.836;9.174;2022-10-13T03:54:45;10.80;99.90
48744;DHT22;34538;48.836;9.174;2022-10-13T03:57:14;10.80;99.90
48744;DHT22;34538;48.836;9.174;2022-10-13T03:59:40;10.90;99.90
48744;DHT22;34538;48.836;9.174;2022-10-13T04:02:06;10.90;99.90
48744;DHT22;34538;48.836;9.174;2022-10-13T04:04:33;10.90;99.90
48744;DHT22;34538;48.836;9.174;2022-10-13T04:07:00;11.00;99.90
48744;DHT22;34538;48.836;9.174;2022-10-13T04:09:26;11.00;99.90
48744;DHT22;34538;48.836;9.174;2022-10-13T04:11:52;11.00;99.90
48744;DHT22;34538;48.836;9.174;2022-10-13T04:14:18;11.10;99.90
48744;DHT22;34538;48.836;9.174;2022-10-13T04:16:48;11.10;99.90
48744;DHT22;34538;48.836;9.174;2022-10-13T04:19:39;11.20;99.90
48744;DHT22;34538;48.836;9.174;2022-10-13T04:22:05;11.20;99.90
48744;DHT22;34538;48.836;9.174;2022-10-13T04:24:31;11.20;99.90
48744;DHT22;34538;48.836;9.174;2022-10-13T04:26:56;11.30;99.90
48744;DHT22;34538;48.836;9.174;2022-10-13T04:29:22;11.30;99.90
48744;DHT22;34538;48.836;9.174;2022-10-13T04:31:50;11.30;99.90
48744;DHT22;34538;48.836;9.174;2022-10-13T04:34:16;11.30;99.90
48744;DHT22;34538;48.836;9.174;2022-10-13T04:36:41;11.30;99.90
48744;DHT22;34538;48.836;9.174;2022-10-13T04:39:07;11.20;99.90
48744;DHT22;34538;48.836;9.174;2022-10-13T04:41:34;11.20;99.90
48744;DHT22;34538;48.836;9.174;2022-10-13T04:43:59;11.20;99.90
48744;DHT22;34538;48.836;9.174;2022-10-13T04:46:27;11.20;99.90
48744;DHT22;34538;48.836;9.174;2022-10-13T04:48:55;11.10;99.90
48744;DHT22;34538;48.836;9.174;2022-10-13T04:51:27;11.10;99.90
48744;DHT22;34538;48.836;9.174;2022-10-13T04:53:57;11.10;99.90
48744;DHT22;34538;48.836;9.174;2022-10-13T04:56:23;11.10;99.90
48744;DHT22;34538;48.836;9.174;2022-10-13T04:58:49;11.10;99.90
48744;DHT22;34538;48.836;9.174;2022-10-13T05:01:19;11.00;99.90
48744;DHT22;34538;48.836;9.174;2022-10-13T05:03:45;11.00;99.90
48744;DHT22;34538;48.836;9.174;2022-10-13T05:06:15;11.00;99.90
48744;DHT22;34538;48.836;9.174;2022-10-13T05:08:44;10.90;99.90
48744;DHT22;34538;48.836;9.174;2022-10-13T05:11:12;11.00;99.90
48744;DHT22;34538;48.836;9.174;2022-10-13T05:13:39;11.00;99.90
48744;DHT22;34538;48.836;9.174;2022-10-13T05:16:09;10.90;99.90
48744;DHT22;34538;48.836;9.174;2022-10-13T05:18:36;10.90;99.90
48744;DHT22;34538;48.836;9.174;2022-10-13T05:21:09;10.90;99.90
48744;DHT22;34538;48.836;9.174;2022-10-13T05:23:36;10.90;99.90
48744;DHT22;34538;48.836;9.174;2022-10-13T05:26:09;10.90;99.90
48744;DHT22;34538;48.836;9.174;2022-10-13T05:28:35;10.90;99.90
48744;DHT22;34538;48.836;9.174;2022-10-13T05:31:15;10.90;99.90
48744;DHT22;34538;48.836;9.174;2022-10-13T05:33:42;10.90;99.90
48744;DHT22;34538;48.836;9.174;2022-10-13T05:36:10;10.90;99.90
48744;DHT22;34538;48.836;9.174;2022-10-13T05:38:37;10.90;99.90
48744;DHT22;34538;48.836;9.174;2022-10-13T05:41:08;10.90;99.90
48744;DHT22;34538;48.836;9.174;2022-10-13T05:43:35;11.00;99.90
48744;DHT22;34538;48.836;9.174;2022-10-13T05:46:02;11.00;99.90
48744;DHT22;34538;48.836;9.174;2022-10-13T05:48:28;11.00;99.90
48744;DHT22;34538;48.836;9.174;2022-10-13T05:50:55;11.00;99.90
48744;DHT22;34538;48.836;9.174;2022-10-13T05:53:23;11.10;99.90
48744;DHT22;34538;48.836;9.174;2022-10-13T05:55:50;11.10;99.90
48744;DHT22;34538;48.836;9.174;2022-10-13T05:58:20;11.10;99.90
48744;DHT22;34538;48.836;9.174;2022-10-13T06:00:46;11.20;99.90
48744;DHT22;34538;48.836;9.174;2022-10-13T06:03:15;11.20;99.90
48744;DHT22;34538;48.836;9.174;2022-10-13T06:05:43;11.30;99.90
48744;DHT22;34538;48.836;9.174;2022-10-13T06:08:12;11.30;99.90
48744;DHT22;34538;48.836;9.174;2022-10-13T06:10:39;11.40;99.90
48744;DHT22;34538;48.836;9.174;2022-10-13T06:13:05;11.40;99.90
48744;DHT22;34538;48.836;9.174;2022-10-13T06:15:31;11.40;99.90
48744;DHT22;34538;48.836;9.174;2022-10-13T06:17:57;11.50;99.90
48744;DHT22;34538;48.836;9.174;2022-10-13T06:20:23;11.50;99.90
48744;DHT22;34538;48.836;9.174;2022-10-13T06:22:48;11.60;99.90
48744;DHT22;34538;48.836;9.174;2022-10-13T06:25:15;11.60;99.90
48744;DHT22;34538;48.836;9.174;2022-10-13T06:27:44;11.70;99.90
48744;DHT22;34538;48.836;9.174;2022-10-13T06:30:27;11.70;99.90
48744;DHT22;34538;48.836;9.174;2022-10-13T06:32:54;11.80;99.90
48744;DHT22;34538;48.836;9.174;2022-10-13T06:35:21;11.80;99.90
48744;DHT22;34538;48.836;9.174;2022-10-13T06:37:46;11.80;99.90
48744;DHT22;34538;48.836;9.174;2022-10-13T06:40:14;11.90;99.90
48744;DHT22;34538;48.836;9.174;2022-10-13T06:42:39;11.90;99.90
48744;DHT22;34538;48.836;9.174;2022-10-13T06:45:07;12.00;99.90
48744;DHT22;34538;48.836;9.174;2022-10-13T06:47:33;12.00;99.90
48744;DHT22;34538;48.836;9.174;2022-10-13T06:49:59;12.00;99.90
48744;DHT22;34538;48.836;9.174;2022-10-13T06:52:24;12.10;99.90
48744;DHT22;34538;48.836;9.174;2022-10-13T06:54:50;12.10;99.90
48744;DHT22;34538;48.836;9.174;2022-10-13T06:57:16;12.20;99.90
48744;DHT22;34538;48.836;9.174;2022-10-13T06:59:41;12.20;99.90
48744;DHT22;34538;48.836;9.174;2022-10-13T07:02:08;12.30;99.90
48744;DHT22;34538;48.836;9.174;2022-10-13T07:04:34;12.30;99.90
48744;DHT22;34538;48.836;9.174;2022-10-13T07:07:00;12.40;99.90
48744;DHT22;34538;48.836;9.174;2022-10-13T07:09:25;12.50;99.90
48744;DHT22;34538;48.836;9.174;2022-10-13T07:11:52;12.50;99.90
48744;DHT22;34538;48.836;9.174;2022-10-13T07:14:18;12.60;99.90
48744;DHT22;34538;48.836;9.174;2022-10-13T07:16:46;12.70;99.90
48744;DHT22;34538;48.836;9.174;2022-10-13T07:19:11;12.70;99.90
48744;DHT22;34538;48.836;9.174;2022-10-13T07:21:39;12.70;99.90
48744;DHT22;34538;48.836;9.174;2022-10-13T07:24:04;12.80;99.90
48744;DHT22;34538;48.836;9.174;2022-10-13T07:26:31;12.90;99.90
48744;DHT22;34538;48.836;9.174;2022-10-13T07:28:58;12.90;99.90
48744;DHT22;34538;48.836;9.174;2022-10-13T07:31:24;13.00;99.90
48744;DHT22;34538;48.836;9.174;2022-10-13T07:33:50;13.00;99.90
48744;DHT22;34538;48.836;9.174;2022-10-13T07:36:16;13.10;99.90
48744;DHT22;34538;48.836;9.174;2022-10-13T07:38:42;13.10;99.90
48744;DHT22;34538;48.836;9.174;2022-10-13T07:41:09;13.20;99.90
48744;DHT22;34538;48.836;9.174;2022-10-13T07:43:35;13.20;99.90
48744;DHT22;34538;48.836;9.174;2022-10-13T07:46:04;13.30;99.90
48744;DHT22;34538;48.836;9.174;2022-10-13T07:48:30;13.30;99.90
48744;DHT22;34538;48.836;9.174;2022-10-13T07:51:05;13.40;99.90
48744;DHT22;34538;48.836;9.174;2022-10-13T07:53:31;13.50;99.90
48744;DHT22;34538;48.836;9.174;2022-10-13T07:56:06;13.60;99.90
48744;DHT22;34538;48.836;9.174;2022-10-13T07:58:35;13.60;99.90
48744;DHT22;34538;48.836;9.174;2022-10-13T08:01:02;13.70;99.90
48744;DHT22;34538;48.836;9.174;2022-10-13T08:03:29;13.80;99.90
48744;DHT22;34538;48.836;9.174;2022-10-13T08:05:57;13.80;99.90
48744;DHT22;34538;48.836;9.174;2022-10-13T08:08:23;13.90;99.90
48744;DHT22;34538;48.836;9.174;2022-10-13T08:10:49;14.00;99.90
48744;DHT22;34538;48.836;9.174;2022-10-13T08:13:15;14.00;99.90
48744;DHT22;34538;48.836;9.174;2022-10-13T08:15:41;14.10;99.90
48744;DHT22;34538;48.836;9.174;2022-10-13T08:18:08;14.10;99.90
48744;DHT22;34538;48.836;9.174;2022-10-13T08:20:38;14.20;99.90
48744;DHT22;34538;48.836;9.174;2022-10-13T08:23:04;14.20;99.90
48744;DHT22;34538;48.836;9.174;2022-10-13T08:25:29;14.20;99.90
48744;DHT22;34538;48.836;9.174;2022-10-13T08:27:55;14.30;99.90
48744;DHT22;34538;48.836;9.174;2022-10-13T08:30:21;14.30;99.90
48744;DHT22;34538;48.836;9.174;2022-10-13T08:32:46;14.30;99.90
48744;DHT22;34538;48.836;9.174;2022-10-13T08:35:12;14.30;99.90
48744;DHT22;34538;48.836;9.174;2022-10-13T08:37:37;14.40;99.90
48744;DHT22;34538;48.836;9.174;2022-10-13T08:40:03;14.40;99.90
48744;DHT22;34538;48.836;9.174;2022-10-13T08:42:31;14.50;99.90
48744;DHT22;34538;48.836;9.174;2022-10-13T08:45:00;14.60;99.90
48744;DHT22;34538;48.836;9.174;2022-10-13T08:49:52;14.80;99.90
48744;DHT22;34538;48.836;9.174;2022-10-13T08:52:22;14.90;99.90
48744;DHT22;34538;48.836;9.174;2022-10-13T08:54:50;14.90;99.90
48744;DHT22;34538;48.836;9.174;2022-10-13T08:57:18;15.00;99.90
48744;DHT22;34538;48.836;9.174;2022-10-13T08:59:45;15.20;99.90
48744;DHT22;34538;48.836;9.174;2022-10-13T09:02:22;15.20;99.90
48744;DHT22;34538;48.836;9.174;2022-10-13T09:05:01;15.30;99.90
48744;DHT22;34538;48.836;9.174;2022-10-13T09:07:30;15.40;99.90
48744;DHT22;34538;48.836;9.174;2022-10-13T09:09:57;15.50;99.90
48744;DHT22;34538;48.836;9.174;2022-10-13T09:12:24;15.60;99.90
48744;DHT22;34538;48.836;9.174;2022-10-13T09:15:07;15.70;99.90
48744;DHT22;34538;48.836;9.174;2022-10-13T09:17:35;15.80;99.90
48744;DHT22;34538;48.836;9.174;2022-10-13T09:20:05;15.80;99.90
48744;DHT22;34538;48.836;9.174;2022-10-13T09:22:39;15.90;99.90
48744;DHT22;34538;48.836;9.174;2022-10-13T09:33:23;16.10;99.90
48744;DHT22;34538;48.836;9.174;2022-10-13T09:38:24;16.20;99.90
48744;DHT22;34538;48.836;9.174;2022-10-13T09:41:05;16.20;99.90
48744;DHT22;34538;48.836;9.174;2022-10-13T09:46:50;16.20;99.90
48744;DHT22;34538;48.836;9.174;2022-10-13T09:49:42;16.30;99.90
48744;DHT22;34538;48.836;9.174;2022-10-13T09:52:15;16.30;99.90
48744;DHT22;34538;48.836;9.174;2022-10-13T09:54:48;16.30;99.90
48744;DHT22;34538;48.836;9.174;2022-10-13T10:00:12;16.40;99.90
48744;DHT22;34538;48.836;9.174;2022-10-13T10:03:02;16.40;99.90
48744;DHT22;34538;48.836;9.174;2022-10-13T10:05:52;16.40;99.90
48744;DHT22;34538;48.836;9.174;2022-10-13T10:08:41;16.40;99.90
48744;DHT22;34538;48.836;9.174;2022-10-13T10:11:18;16.50;99.90
48744;DHT22;34538;48.836;9.174;2022-10-13T10:13:44;16.50;99.90
48744;DHT22;34538;48.836;9.174;2022-10-13T10:16:13;16.50;99.90
48744;DHT22;34538;48.836;9.174;2022-10-13T10:19:02;16.50;99.90
48744;DHT22;34538;48.836;9.174;2022-10-13T10:21:42;16.60;99.90
48744;DHT22;34538;48.836;9.174;2022-10-13T10:30:15;16.60;99.90
48744;DHT22;34538;48.836;9.174;2022-10-13T10:32:42;16.60;99.90
48744;DHT22;34538;48.836;9.174;2022-10-13T10:35:13;16.60;99.90
48744;DHT22;34538;48.836;9.174;2022-10-13T10:38:04;16.60;99.90
48744;DHT22;34538;48.836;9.174;2022-10-13T10:44:14;16.60;99.90
48744;DHT22;34538;48.836;9.174;2022-10-13T10:46:45;16.60;99.90
48744;DHT22;34538;48.836;9.174;2022-10-13T10:49:19;16.60;99.90
48744;DHT22;34538;48.836;9.174;2022-10-13T10:51:47;16.60;99.90
48744;DHT22;34538;48.836;9.174;2022-10-13T10:54:42;16.60;99.90
48744;DHT22;34538;48.836;9.174;2022-10-13T10:57:27;16.70;99.90
48744;DHT22;34538;48.836;9.174;2022-10-13T11:00:11;16.70;99.90
48744;DHT22;34538;48.836;9.174;2022-10-13T11:05:19;16.80;99.90
48744;DHT22;34538;48.836;9.174;2022-10-13T11:15:13;16.90;99.90
48744;DHT22;34538;48.836;9.174;2022-10-13T11:17:41;16.90;99.90
48744;DHT22;34538;48.836;9.174;2022-10-13T11:25:38;17.00;99.90
48744;DHT22;34538;48.836;9.174;2022-10-13T11:42:04;17.20;99.90
48744;DHT22;34538;48.836;9.174;2022-10-13T11:44:54;17.20;99.90
48744;DHT22;34538;48.836;9.174;2022-10-13T11:56:35;17.30;99.90
48744;DHT22;34538;48.836;9.174;2022-10-13T11:59:01;17.30;99.90
48744;DHT22;34538;48.836;9.174;2022-10-13T12:01:27;17.30;99.90
48744;DHT22;34538;48.836;9.174;2022-10-13T12:03:53;17.40;99.90
48744;DHT22;34538;48.836;9.174;2022-10-13T12:06:33;17.40;99.90
48744;DHT22;34538;48.836;9.174;2022-10-13T12:09:06;17.40;99.90
48744;DHT22;34538;48.836;9.174;2022-10-13T12:11:39;17.50;99.90
48744;DHT22;34538;48.836;9.174;2022-10-13T12:14:20;17.40;99.90
48744;DHT22;34538;48.836;9.174;2022-10-13T12:16:58;17.50;99.90
48744;DHT22;34538;48.836;9.174;2022-10-13T12:19:27;17.60;99.90
48744;DHT22;34538;48.836;9.174;2022-10-13T12:21:55;17.60;99.90
48744;DHT22;34538;48.836;9.174;2022-10-13T12:24:25;17.60;99.90
48744;DHT22;34538;48.836;9.174;2022-10-13T12:27:08;17.70;99.90
48744;DHT22;34538;48.836;9.174;2022-10-13T12:29:34;17.70;99.90
48744;DHT22;34538;48.836;9.174;2022-10-13T12:31:59;17.70;99.90
48744;DHT22;34538;48.836;9.174;2022-10-13T12:34:30;17.70;99.90
48744;DHT22;34538;48.836;9.174;2022-10-13T12:39:43;17.70;99.90
48744;DHT22;34538;48.836;9.174;2022-10-13T12:42:12;17.70;99.90
48744;DHT22;34538;48.836;9.174;2022-10-13T12:44:38;17.80;99.90
48744;DHT22;34538;48.836;9.174;2022-10-13T12:47:04;17.80;99.90
48744;DHT22;34538;48.836;9.174;2022-10-13T12:49:30;17.90;99.90
48744;DHT22;34538;48.836;9.174;2022-10-13T12:52:12;17.90;99.90
48744;DHT22;34538;48.836;9.174;2022-10-13T12:54:50;18.00;99.90
48744;DHT22;34538;48.836;9.174;2022-10-13T12:57:21;18.00;99.90
48744;DHT22;34538;48.836;9.174;2022-10-13T12:59:50;18.00;99.90
48744;DHT22;34538;48.836;9.174;2022-10-13T13:02:20;18.00;99.90
48744;DHT22;34538;48.836;9.174;2022-10-13T13:04:48;18.10;99.90
48744;DHT22;34538;48.836;9.174;2022-10-13T13:07:34;18.10;99.90
48744;DHT22;34538;48.836;9.174;2022-10-13T13:12:35;18.20;99.90
48744;DHT22;34538;48.836;9.174;2022-10-13T13:17:50;18.20;99.90
48744;DHT22;34538;48.836;9.174;2022-10-13T13:20:31;18.20;99.90
48744;DHT22;34538;48.836;9.174;2022-10-13T13:22:57;18.30;99.90
48744;DHT22;34538;48.836;9.174;2022-10-13T13:25:23;18.30;99.90
48744;DHT22;34538;48.836;9.174;2022-10-13T13:27:49;18.20;99.90
48744;DHT22;34538;48.836;9.174;2022-10-13T13:30:20;18.20;99.90
48744;DHT22;34538;48.836;9.174;2022-10-13T13:32:47;18.20;99.90
48744;DHT22;34538;48.836;9.174;2022-10-13T13:35:13;18.20;99.90
48744;DHT22;34538;48.836;9.174;2022-10-13T13:37:42;18.20;99.90
48744;DHT22;34538;48.836;9.174;2022-10-13T13:40:18;18.20;99.90
48744;DHT22;34538;48.836;9.174;2022-10-13T13:42:43;18.20;99.90
48744;DHT22;34538;48.836;9.174;2022-10-13T13:45:16;18.10;99.90
48744;DHT22;34538;48.836;9.174;2022-10-13T13:47:43;18.10;99.90
48744;DHT22;34538;48.836;9.174;2022-10-13T13:50:21;18.10;99.90
48744;DHT22;34538;48.836;9.174;2022-10-13T13:52:55;18.10;99.90
48744;DHT22;34538;48.836;9.174;2022-10-13T13:55:20;18.10;99.90
48744;DHT22;34538;48.836;9.174;2022-10-13T13:57:47;18.00;99.90
48744;DHT22;34538;48.836;9.174;2022-10-13T14:00:17;18.00;99.90
48744;DHT22;34538;48.836;9.174;2022-10-13T14:02:53;18.00;99.90
48744;DHT22;34538;48.836;9.174;2022-10-13T14:05:18;18.00;99.90
48744;DHT22;34538;48.836;9.174;2022-10-13T14:07:45;18.00;99.90
48744;DHT22;34538;48.836;9.174;2022-10-13T14:10:20;18.00;99.90
48744;DHT22;34538;48.836;9.174;2022-10-13T14:12:45;17.90;99.90
48744;DHT22;34538;48.836;9.174;2022-10-13T14:15:11;17.90;99.90
48744;DHT22;34538;48.836;9.174;2022-10-13T14:17:36;17.80;99.90
48744;DHT22;34538;48.836;9.174;2022-10-13T14:20:04;17.70;99.90
48744;DHT22;34538;48.836;9.174;2022-10-13T14:22:38;17.70;99.90
48744;DHT22;34538;48.836;9.174;2022-10-13T14:25:05;17.70;99.90
48744;DHT22;34538;48.836;9.174;2022-10-13T14:27:33;17.60;99.90
48744;DHT22;34538;48.836;9.174;2022-10-13T14:30:00;17.60;99.90
48744;DHT22;34538;48.836;9.174;2022-10-13T14:32:26;17.60;99.90
48744;DHT22;34538;48.836;9.174;2022-10-13T14:34:52;17.50;99.90
48744;DHT22;34538;48.836;9.174;2022-10-13T14:37:17;17.50;99.90
48744;DHT22;34538;48.836;9.174;2022-10-13T14:39:43;17.50;99.90
48744;DHT22;34538;48.836;9.174;2022-10-13T14:42:09;17.40;99.90
48744;DHT22;34538;48.836;9.174;2022-10-13T14:44:34;17.30;99.90
48744;DHT22;34538;48.836;9.174;2022-10-13T14:47:06;17.30;99.90
48744;DHT22;34538;48.836;9.174;2022-10-13T14:49:32;17.20;99.90
48744;DHT22;34538;48.836;9.174;2022-10-13T14:51:58;17.10;99.90
48744;DHT22;34538;48.836;9.174;2022-10-13T14:54:24;17.10;99.90
48744;DHT22;34538;48.836;9.174;2022-10-13T14:56:50;17.00;99.90
48744;DHT22;34538;48.836;9.174;2022-10-13T14:59:16;17.00;99.90
48744;DHT22;34538;48.836;9.174;2022-10-13T15:01:43;16.90;99.90
48744;DHT22;34538;48.836;9.174;2022-10-13T15:04:09;16.90;99.90
48744;DHT22;34538;48.836;9.174;2022-10-13T15:06:37;16.80;99.90
48744;DHT22;34538;48.836;9.174;2022-10-13T15:09:06;16.70;99.90
48744;DHT22;34538;48.836;9.174;2022-10-13T15:11:33;16.70;99.90
48744;DHT22;34538;48.836;9.174;2022-10-13T15:13:59;16.60;99.90
48744;DHT22;34538;48.836;9.174;2022-10-13T15:16:26;16.60;99.90
48744;DHT22;34538;48.836;9.174;2022-10-13T15:18:53;16.60;99.90
48744;DHT22;34538;48.836;9.174;2022-10-13T15:21:19;16.50;99.90
48744;DHT22;34538;48.836;9.174;2022-10-13T15:23:46;16.50;99.90
48744;DHT22;34538;48.836;9.174;2022-10-13T15:26:14;16.50;99.90
48744;DHT22;34538;48.836;9.174;2022-10-13T15:28:42;16.50;99.90
48744;DHT22;34538;48.836;9.174;2022-10-13T15:31:09;16.50;99.90
48744;DHT22;34538;48.836;9.174;2022-10-13T15:33:35;16.50;99.90
48744;DHT22;34538;48.836;9.174;2022-10-13T15:36:00;16.50;99.90
48744;DHT22;34538;48.836;9.174;2022-10-13T15:38:26;16.40;99.90
48744;DHT22;34538;48.836;9.174;2022-10-13T15:40:52;16.40;99.90
48744;DHT22;34538;48.836;9.174;2022-10-13T15:43:18;16.40;99.90
48744;DHT22;34538;48.836;9.174;2022-10-13T15:45:53;16.40;99.90
48744;DHT22;34538;48.836;9.174;2022-10-13T15:48:20;16.30;99.90
48744;DHT22;34538;48.836;9.174;2022-10-13T15:50:46;16.30;99.90
48744;DHT22;34538;48.836;9.174;2022-10-13T15:53:11;16.30;99.90
48744;DHT22;34538;48.836;9.174;2022-10-13T15:55:38;16.30;99.90
48744;DHT22;34538;48.836;9.174;2022-10-13T15:58:05;16.20;99.90
48744;DHT22;34538;48.836;9.174;2022-10-13T16:00:31;16.30;99.90
48744;DHT22;34538;48.836;9.174;2022-10-13T16:02:56;16.20;99.90
48744;DHT22;34538;48.836;9.174;2022-10-13T16:05:22;16.20;99.90
48744;DHT22;34538;48.836;9.174;2022-10-13T16:07:48;16.20;99.90
48744;DHT22;34538;48.836;9.174;2022-10-13T16:10:14;16.20;99.90
48744;DHT22;34538;48.836;9.174;2022-10-13T16:12:41;16.10;99.90
48744;DHT22;34538;48.836;9.174;2022-10-13T16:15:07;16.10;99.90
48744;DHT22;34538;48.836;9.174;2022-10-13T16:17:33;16.00;99.90
48744;DHT22;34538;48.836;9.174;2022-10-13T16:19:59;16.00;99.90
48744;DHT22;34538;48.836;9.174;2022-10-13T16:22:25;16.00;99.90
48744;DHT22;34538;48.836;9.174;2022-10-13T16:24:51;15.90;99.90
48744;DHT22;34538;48.836;9.174;2022-10-13T16:27:17;15.90;99.90
48744;DHT22;34538;48.836;9.174;2022-10-13T16:29:43;15.80;99.90
48744;DHT22;34538;48.836;9.174;2022-10-13T16:32:08;15.80;99.90
48744;DHT22;34538;48.836;9.174;2022-10-13T16:34:34;15.70;99.90
48744;DHT22;34538;48.836;9.174;2022-10-13T16:37:00;15.70;99.90
48744;DHT22;34538;48.836;9.174;2022-10-13T16:39:25;15.70;99.90
48744;DHT22;34538;48.836;9.174;2022-10-13T16:41:52;15.70;99.90
48744;DHT22;34538;48.836;9.174;2022-10-13T16:44:23;15.60;99.90
48744;DHT22;34538;48.836;9.174;2022-10-13T16:46:48;15.60;99.90
48744;DHT22;34538;48.836;9.174;2022-10-13T16:49:16;15.50;99.90
48744;DHT22;34538;48.836;9.174;2022-10-13T16:51:42;15.50;99.90
48744;DHT22;34538;48.836;9.174;2022-10-13T16:54:08;15.50;99.90
48744;DHT22;34538;48.836;9.174;2022-10-13T16:56:33;15.50;99.90
48744;DHT22;34538;48.836;9.174;2022-10-13T16:59:01;15.40;99.90
48744;DHT22;34538;48.836;9.174;2022-10-13T17:01:27;15.40;99.90
48744;DHT22;34538;48.836;9.174;2022-10-13T17:03:53;15.30;99.90
48744;DHT22;34538;48.836;9.174;2022-10-13T17:06:21;15.30;99.90
48744;DHT22;34538;48.836;9.174;2022-10-13T17:08:53;15.20;99.90
48744;DHT22;34538;48.836;9.174;2022-10-13T17:11:25;15.20;99.90
48744;DHT22;34538;48.836;9.174;2022-10-13T17:13:51;15.20;99.90
48744;DHT22;34538;48.836;9.174;2022-10-13T17:16:17;15.10;99.90